Terminal Aerodrome Forecast
Issued by NWS

Home | Current Version | Previous Version | Text Only | Print | Product List | Glossary On
Versions: 1 2 3 4 5 6 7 8 9 10 11 12 13 14 15 16 17 18
000
FTUS43 KOAX 242300 RRA
TAFBFF
TAF
KBFF 242346Z 2500/2524 28014KT P6SM SCT150
     FM250400 29010KT P6SM SCT200
     FM251900 13008KT P6SM SCT120=

USA.gov is the U.S. government's official web portal to all federal, state and local government web resources and services.